RYR76GA LFBH-EGSS
Flight info
| Callsign | RYR76GA |
|---|---|
| Flight time | N/A |
| Altitude | 34000 |
| Route | LUSON A25 TIRAV UT501 USODA UM184 DIKRO UM185 ADLOG/N0361F240 M185 TELTU |
| Aircraft | B738/M-SDE3FGILRWY/SB1 |
Departure
| Time | 2026-05-07 09:34 |
|---|---|
| Airport | La Rochelle Île de Ré Airport (LFBH) |
Arrival
| Time | N/A |
|---|---|
| Airport | London Stansted Airport (EGSS) |
| Time | Latitude | Longitude | Altitude | Speed | Heading |
|---|---|---|---|---|---|
| 2026-05-07 09:17 | 46.17652 | -1.19426 | 68 ft | 0 kts | 318° |
| 2026-05-07 09:27 | 46.17668 | -1.19446 | 75 ft | 6 kts | 318° |
| 2026-05-07 09:28 | 46.17707 | -1.19492 | 76 ft | 7 kts | 332° |
| 2026-05-07 09:28 | 46.17757 | -1.19499 | 74 ft | 7 kts | 2° |
| 2026-05-07 09:28 | 46.17815 | -1.19495 | 69 ft | 9 kts | 2° |
| 2026-05-07 09:28 | 46.17882 | -1.19491 | 72 ft | 10 kts | 5° |
| 2026-05-07 09:29 | 46.17916 | -1.19417 | 75 ft | 10 kts | 90° |
| 2026-05-07 09:29 | 46.17913 | -1.19300 | 73 ft | 13 kts | 92° |
| 2026-05-07 09:29 | 46.17909 | -1.19151 | 72 ft | 15 kts | 92° |
| 2026-05-07 09:29 | 46.17905 | -1.19000 | 73 ft | 15 kts | 92° |
| 2026-05-07 09:30 | 46.17900 | -1.18855 | 73 ft | 14 kts | 92° |
| 2026-05-07 09:30 | 46.17896 | -1.18717 | 72 ft | 14 kts | 92° |
| 2026-05-07 09:30 | 46.17892 | -1.18584 | 70 ft | 13 kts | 92° |
| 2026-05-07 09:30 | 46.17888 | -1.18447 | 76 ft | 14 kts | 92° |
| 2026-05-07 09:31 | 46.17884 | -1.18308 | 66 ft | 13 kts | 92° |
| 2026-05-07 09:31 | 46.17863 | -1.18224 | 69 ft | 7 kts | 116° |
| 2026-05-07 09:31 | 46.17878 | -1.18213 | 70 ft | 3 kts | 303° |
| 2026-05-07 09:31 | 46.17881 | -1.18240 | 76 ft | 0 kts | 272° |
| 2026-05-07 09:33 | 46.17890 | -1.18516 | 73 ft | 67 kts | 272° |
| 2026-05-07 09:33 | 46.17920 | -1.19561 | 76 ft | 138 kts | 272° |
| 2026-05-07 09:34 | 46.17972 | -1.21162 | 430 ft | 163 kts | 270° |
| 2026-05-07 09:34 | 46.18205 | -1.22774 | 1258 ft | 173 kts | 288° |
| 2026-05-07 09:34 | 46.18607 | -1.24540 | 1820 ft | 202 kts | 289° |
| 2026-05-07 09:34 | 46.19521 | -1.26250 | 2105 ft | 233 kts | 330° |
| 2026-05-07 09:35 | 46.21112 | -1.26858 | 2713 ft | 244 kts | 354° |
| 2026-05-07 09:35 | 46.22854 | -1.27182 | 3306 ft | 260 kts | 353° |
| 2026-05-07 09:35 | 46.24688 | -1.27567 | 4073 ft | 269 kts | 351° |
| 2026-05-07 09:35 | 46.26524 | -1.28001 | 5131 ft | 267 kts | 350° |
| 2026-05-07 09:36 | 46.28367 | -1.28473 | 6061 ft | 272 kts | 349° |
| 2026-05-07 09:36 | 46.30250 | -1.28987 | 6864 ft | 278 kts | 348° |
| 2026-05-07 09:36 | 46.32167 | -1.29539 | 7706 ft | 283 kts | 347° |
| 2026-05-07 09:36 | 46.34098 | -1.30117 | 8631 ft | 284 kts | 347° |
| 2026-05-07 09:37 | 46.36045 | -1.30712 | 9532 ft | 287 kts | 346° |
| 2026-05-07 09:37 | 46.37991 | -1.31316 | 10311 ft | 293 kts | 346° |
| 2026-05-07 09:37 | 46.40062 | -1.31966 | 10599 ft | 317 kts | 346° |
| 2026-05-07 09:37 | 46.42325 | -1.32679 | 10948 ft | 337 kts | 346° |
| 2026-05-07 09:38 | 46.44644 | -1.33409 | 11621 ft | 344 kts | 346° |
| 2026-05-07 09:38 | 46.46968 | -1.34142 | 12404 ft | 348 kts | 346° |
| 2026-05-07 09:38 | 46.49348 | -1.34894 | 13202 ft | 353 kts | 346° |
| 2026-05-07 09:38 | 46.51756 | -1.35740 | 13936 ft | 358 kts | 343° |
| 2026-05-07 09:39 | 46.54170 | -1.36730 | 14634 ft | 362 kts | 342° |
| 2026-05-07 09:39 | 46.56594 | -1.37739 | 15477 ft | 364 kts | 342° |
| 2026-05-07 09:39 | 46.59063 | -1.38699 | 16246 ft | 368 kts | 347° |
| 2026-05-07 09:39 | 46.61621 | -1.39091 | 16986 ft | 373 kts | 359° |
| 2026-05-07 09:40 | 46.64223 | -1.38955 | 17717 ft | 376 kts | 2° |
| 2026-05-07 09:40 | 46.66850 | -1.38737 | 18442 ft | 380 kts | 2° |
| 2026-05-07 09:40 | 46.69503 | -1.38506 | 19113 ft | 384 kts | 2° |
| 2026-05-07 09:40 | 46.72191 | -1.38283 | 19721 ft | 388 kts | 2° |
| 2026-05-07 09:41 | 46.74890 | -1.38074 | 20342 ft | 390 kts | 2° |
| 2026-05-07 09:41 | 46.77619 | -1.37873 | 20922 ft | 394 kts | 1° |
| 2026-05-07 09:41 | 46.80370 | -1.37678 | 21473 ft | 398 kts | 1° |
| 2026-05-07 09:41 | 46.83149 | -1.37484 | 22031 ft | 402 kts | 1° |
| 2026-05-07 09:42 | 46.85951 | -1.37288 | 22588 ft | 405 kts | 1° |
| 2026-05-07 09:42 | 46.88782 | -1.37091 | 23133 ft | 409 kts | 1° |
| 2026-05-07 09:42 | 46.91632 | -1.36891 | 23654 ft | 412 kts | 1° |
| 2026-05-07 09:42 | 46.94504 | -1.36690 | 24097 ft | 415 kts | 1° |
| 2026-05-07 09:43 | 46.97403 | -1.36503 | 24569 ft | 417 kts | 359° |
| 2026-05-07 09:43 | 47.00306 | -1.36551 | 25048 ft | 418 kts | 356° |
| 2026-05-07 09:43 | 47.03226 | -1.36731 | 25506 ft | 421 kts | 355° |
| 2026-05-07 09:43 | 47.06158 | -1.36955 | 25934 ft | 424 kts | 355° |
| 2026-05-07 09:44 | 47.09111 | -1.37185 | 26346 ft | 427 kts | 355° |
| 2026-05-07 09:44 | 47.12086 | -1.37407 | 26758 ft | 429 kts | 355° |
| 2026-05-07 09:44 | 47.15078 | -1.37616 | 27171 ft | 432 kts | 355° |
| 2026-05-07 09:44 | 47.18091 | -1.37817 | 27593 ft | 434 kts | 356° |
| 2026-05-07 09:45 | 47.21116 | -1.38013 | 28013 ft | 436 kts | 356° |